Time;durP1;ratioP1;P1;durP2;ratioP2;P2;SDS_P1;SDS_P2;PMS_P1;PMS_P2;Temp;Humidity;BMP_temperature;BMP_pressure;BME280_temperature;BME280_humidity;BME280_pressure;Samples;Min_cycle;Max_cycle;Signal;HPM_P1;HPM_P2
2022/10/15 00:00:39;;;;;;;3.90;2.10;;;12.60;70.40;;;;;;4993867;28;20385;-73
2022/10/15 00:03:06;;;;;;;3.90;1.85;;;12.60;70.40;;;;;;4985919;28;20045;-73
2022/10/15 00:05:36;;;;;;;3.47;2.28;;;12.60;70.40;;;;;;4990661;28;20048;-73
2022/10/15 00:08:02;;;;;;;3.30;1.83;;;12.70;70.60;;;;;;4989086;28;20049;-73
2022/10/15 00:10:29;;;;;;;3.72;1.95;;;12.70;70.50;;;;;;4985442;28;20055;-73
2022/10/15 00:12:55;;;;;;;4.30;2.90;;;12.70;70.50;;;;;;4991986;28;20022;-73
2022/10/15 00:15:21;;;;;;;3.30;1.80;;;12.80;70.70;;;;;;4993176;28;20034;-73
2022/10/15 00:17:47;;;;;;;3.58;2.03;;;12.80;70.60;;;;;;4984530;28;20030;-74
2022/10/15 00:20:13;;;;;;;4.38;1.90;;;12.80;70.60;;;;;;4994889;28;20037;-72
2022/10/15 00:22:39;;;;;;;2.95;1.63;;;12.90;70.80;;;;;;4982413;28;20342;-72
2022/10/15 00:25:07;;;;;;;3.33;1.77;;;12.90;70.70;;;;;;4993652;28;20057;-72
2022/10/15 00:27:34;;;;;;;2.45;1.45;;;12.90;70.70;;;;;;4992642;28;20038;-72
2022/10/15 00:30:02;;;;;;;2.65;1.77;;;12.90;70.70;;;;;;4995339;28;20036;-72
2022/10/15 00:32:29;;;;;;;4.65;1.92;;;12.90;70.70;;;;;;4972352;28;20030;-72
2022/10/15 00:34:55;;;;;;;3.83;1.80;;;13.00;70.90;;;;;;4981341;28;20049;-71
2022/10/15 00:37:22;;;;;;;3.85;2.03;;;13.00;70.90;;;;;;4992508;28;20041;-72
2022/10/15 00:39:48;;;;;;;3.13;1.67;;;13.10;71.10;;;;;;4971272;28;20053;-74
2022/10/15 00:42:15;;;;;;;4.03;1.83;;;13.00;71.00;;;;;;4986921;28;20030;-73
2022/10/15 00:44:53;;;;;;;3.08;1.95;;;13.10;71.10;;;;;;4988753;28;20038;-71
2022/10/15 00:47:41;;;;;;;4.32;2.00;;;13.10;71.20;;;;;;4979699;28;20026;-73
2022/10/15 00:50:14;;;;;;;6.18;2.50;;;13.10;71.20;;;;;;4990328;28;20078;-72
2022/10/15 00:52:43;;;;;;;4.78;1.60;;;13.10;71.10;;;;;;4983357;28;20089;-72
2022/10/15 00:55:20;;;;;;;3.80;1.45;;;13.10;71.10;;;;;;4987157;28;20042;-73
2022/10/15 00:57:50;;;;;;;2.40;1.67;;;13.20;71.20;;;;;;4970124;28;20030;-73
2022/10/15 01:00:17;;;;;;;4.10;1.90;;;13.20;71.20;;;;;;4992648;28;20092;-73
2022/10/15 01:02:44;;;;;;;5.05;1.90;;;13.20;71.20;;;;;;4987798;28;20463;-73
2022/10/15 01:05:13;;;;;;;4.53;2.08;;;13.30;71.50;;;;;;4987547;28;20097;-73
2022/10/15 01:07:39;;;;;;;3.20;1.98;;;13.30;71.40;;;;;;4982715;28;20034;-73
2022/10/15 01:10:08;;;;;;;5.30;2.08;;;13.40;71.50;;;;;;4986054;28;20030;-72
2022/10/15 01:12:49;;;;;;;3.08;1.65;;;13.40;71.50;;;;;;4981007;28;20027;-73
2022/10/15 01:15:49;;;;;;;5.30;2.38;;;13.40;71.60;;;;;;4982534;28;20044;-74
2022/10/15 01:18:24;;;;;;;4.43;2.50;;;13.50;71.60;;;;;;4978040;28;20038;-74
2022/10/15 01:21:00;;;;;;;3.30;1.58;;;13.50;71.60;;;;;;4981555;28;20081;-73
2022/10/15 01:23:40;;;;;;;3.25;1.52;;;13.60;71.70;;;;;;4968837;28;20483;-74
2022/10/15 01:26:37;;;;;;;2.92;1.63;;;13.60;71.70;;;;;;4981936;28;20054;-73
2022/10/15 01:29:30;;;;;;;4.43;1.73;;;13.60;71.80;;;;;;4988452;28;20057;-74
2022/10/15 01:32:14;;;;;;;4.57;2.10;;;13.60;71.70;;;;;;4981606;28;20041;-73
2022/10/15 01:34:58;;;;;;;3.88;1.58;;;13.60;71.70;;;;;;4981246;28;20045;-72
2022/10/15 01:37:40;;;;;;;2.65;1.63;;;13.60;71.70;;;;;;4985749;28;20034;-73
2022/10/15 01:40:21;;;;;;;4.35;1.77;;;13.60;71.80;;;;;;4990049;28;20034;-72
2022/10/15 01:42:59;;;;;;;3.92;2.15;;;13.70;71.90;;;;;;4987048;28;20269;-73
2022/10/15 01:46:08;;;;;;;4.20;1.95;;;13.70;71.90;;;;;;4987830;28;20527;-73
2022/10/15 01:48:41;;;;;;;4.32;1.95;;;13.70;71.90;;;;;;4979487;28;20496;-73
2022/10/15 01:51:10;;;;;;;4.57;1.83;;;13.70;71.80;;;;;;4987489;28;20565;-73
2022/10/15 01:53:37;;;;;;;3.80;1.52;;;13.80;72.10;;;;;;4993759;28;20031;-73
2022/10/15 01:56:13;;;;;;;2.47;1.95;;;13.80;72.10;;;;;;4970230;28;20050;-73
2022/10/15 01:58:42;;;;;;;5.97;2.08;;;13.80;72.10;;;;;;4982399;28;20034;-73
2022/10/15 02:01:09;;;;;;;2.35;1.50;;;13.80;72.10;;;;;;4974274;28;20035;-73
2022/10/15 02:03:50;;;;;;;6.45;2.08;;;13.80;72.10;;;;;;4985180;28;20033;-74
2022/10/15 02:06:24;;;;;;;3.50;1.98;;;13.90;72.30;;;;;;4970807;28;20054;-72
2022/10/15 02:09:09;;;;;;;3.45;1.80;;;13.90;72.30;;;;;;4973510;28;20036;-73
2022/10/15 02:12:02;;;;;;;2.90;1.50;;;13.90;72.30;;;;;;4990558;28;20056;-74
2022/10/15 02:15:00;;;;;;;2.15;1.65;;;13.90;72.30;;;;;;4982298;28;20042;-73
2022/10/15 02:17:50;;;;;;;4.55;1.95;;;13.90;72.20;;;;;;4973281;28;20034;-73
2022/10/15 02:20:51;;;;;;;3.63;2.15;;;13.90;72.20;;;;;;4990691;28;20374;-73
2022/10/15 02:23:30;;;;;;;2.53;1.50;;;13.90;72.20;;;;;;4983760;28;20084;-73
2022/10/15 02:26:03;;;;;;;5.93;2.00;;;13.90;72.10;;;;;;4986563;28;20042;-73
2022/10/15 02:28:32;;;;;;;2.50;1.88;;;14.00;72.30;;;;;;4991508;28;20038;-73
2022/10/15 02:31:00;;;;;;;6.90;2.00;;;14.00;72.30;;;;;;4990396;28;20052;-73
2022/10/15 02:33:30;;;;;;;4.10;2.20;;;14.00;72.30;;;;;;4989345;28;20379;-74
2022/10/15 02:35:57;;;;;;;3.03;2.05;;;14.00;72.30;;;;;;4973146;28;20748;-73
2022/10/15 02:38:27;;;;;;;6.07;2.22;;;14.00;72.30;;;;;;4996175;28;20512;-74
2022/10/15 02:40:53;;;;;;;2.28;1.63;;;14.00;72.40;;;;;;4970534;28;20062;-73
2022/10/15 02:43:21;;;;;;;3.15;1.65;;;14.00;72.40;;;;;;4994902;28;20467;-73
2022/10/15 02:45:49;;;;;;;2.65;1.83;;;14.10;72.50;;;;;;4974241;28;20042;-73
2022/10/15 02:48:17;;;;;;;2.80;1.65;;;14.00;72.30;;;;;;4973405;28;20027;-73
2022/10/15 02:50:46;;;;;;;3.33;1.80;;;14.10;72.50;;;;;;4986242;28;20092;-72
2022/10/15 02:53:13;;;;;;;3.00;1.90;;;14.10;72.50;;;;;;4989444;28;20044;-73
2022/10/15 02:55:42;;;;;;;3.50;2.00;;;14.10;72.50;;;;;;4973809;28;20204;-73
2022/10/15 02:58:08;;;;;;;5.07;2.25;;;14.10;72.60;;;;;;4985280;28;20022;-73
2022/10/15 03:00:34;;;;;;;5.50;1.88;;;14.10;72.60;;;;;;4992519;28;20053;-72
2022/10/15 03:03:04;;;;;;;3.88;2.15;;;14.10;72.60;;;;;;4973017;28;20046;-74
2022/10/15 03:05:32;;;;;;;3.85;2.00;;;14.10;72.60;;;;;;4994686;28;20030;-73
2022/10/15 03:07:59;;;;;;;4.25;1.83;;;14.10;72.60;;;;;;4989521;28;20072;-73
2022/10/15 03:10:26;;;;;;;3.17;1.90;;;14.10;72.60;;;;;;4990752;28;20077;-73
2022/10/15 03:12:53;;;;;;;5.93;2.53;;;14.10;72.60;;;;;;4957457;28;20041;-74
2022/10/15 03:15:21;;;;;;;5.18;2.13;;;14.10;72.60;;;;;;4989143;28;20045;-74
2022/10/15 03:17:48;;;;;;;2.85;2.65;;;14.10;72.60;;;;;;4994025;28;20022;-73
2022/10/15 03:20:16;;;;;;;2.55;1.83;;;14.20;72.70;;;;;;4973220;28;20091;-73
2022/10/15 03:22:42;;;;;;;5.55;2.10;;;14.20;72.70;;;;;;4987283;28;20034;-74
2022/10/15 03:25:08;;;;;;;3.10;1.88;;;14.20;72.70;;;;;;4985037;28;20046;-73
2022/10/15 03:27:35;;;;;;;2.08;1.45;;;14.20;72.70;;;;;;4985588;28;20104;-74
2022/10/15 03:30:01;;;;;;;2.95;1.83;;;14.20;72.70;;;;;;4986175;28;20034;-73
2022/10/15 03:32:29;;;;;;;3.33;1.85;;;14.20;72.80;;;;;;4978107;28;20099;-73
2022/10/15 03:34:55;;;;;;;3.53;1.80;;;14.20;72.70;;;;;;4987988;28;20389;-73
2022/10/15 03:37:21;;;;;;;2.55;1.83;;;14.20;72.80;;;;;;4978577;28;20031;-74
2022/10/15 03:39:47;;;;;;;3.45;1.65;;;14.20;72.80;;;;;;4973200;28;20034;-72
2022/10/15 03:42:16;;;;;;;1.83;1.67;;;14.20;72.80;;;;;;5005584;28;20034;-73
2022/10/15 03:44:44;;;;;;;4.22;1.70;;;14.20;72.80;;;;;;4979027;28;20056;-73
2022/10/15 03:47:14;;;;;;;3.35;1.95;;;14.20;72.80;;;;;;4988993;28;20473;-73
2022/10/15 03:49:45;;;;;;;3.35;1.80;;;14.20;72.80;;;;;;4988853;28;20050;-73
2022/10/15 03:52:11;;;;;;;4.47;1.95;;;14.20;72.90;;;;;;4987919;28;20038;-73
2022/10/15 03:54:38;;;;;;;2.65;1.73;;;14.20;72.90;;;;;;4992540;28;20087;-73
2022/10/15 03:57:04;;;;;;;2.28;1.55;;;14.20;72.90;;;;;;5003734;28;20073;-73
2022/10/15 03:59:34;;;;;;;2.60;1.60;;;14.20;73.00;;;;;;4993028;28;20030;-73
2022/10/15 04:02:03;;;;;;;3.95;1.65;;;14.20;73.00;;;;;;4959540;28;20034;-72
2022/10/15 04:04:31;;;;;;;4.57;2.40;;;14.20;73.00;;;;;;4999139;28;20038;-72
2022/10/15 04:06:58;;;;;;;4.35;1.75;;;14.20;73.00;;;;;;4983313;28;20450;-72
2022/10/15 04:09:24;;;;;;;2.60;2.00;;;14.20;73.00;;;;;;4991794;28;20030;-72
2022/10/15 04:11:50;;;;;;;2.35;1.70;;;14.20;73.10;;;;;;4973051;28;20035;-73
2022/10/15 04:14:19;;;;;;;2.72;1.88;;;14.20;73.10;;;;;;4993587;28;20030;-73
2022/10/15 04:16:45;;;;;;;2.03;1.70;;;14.10;73.00;;;;;;4992500;28;20045;-72
2022/10/15 04:19:17;;;;;;;3.30;1.90;;;14.10;73.50;;;;;;4992722;28;20034;-75
2022/10/15 04:21:52;;;;;;;2.83;1.60;;;14.10;73.00;;;;;;4991684;28;20291;-73
2022/10/15 04:24:42;;;;;;;2.13;1.73;;;14.10;73.10;;;;;;4997586;28;20048;-74
2022/10/15 04:27:11;;;;;;;3.10;2.00;;;14.10;73.20;;;;;;4981432;28;20034;-74
2022/10/15 04:29:37;;;;;;;2.63;2.20;;;14.10;73.20;;;;;;4991797;28;20045;-73
2022/10/15 04:32:14;;;;;;;4.60;2.40;;;14.10;73.30;;;;;;4984113;28;20080;-73
2022/10/15 04:34:40;;;;;;;2.15;1.60;;;14.10;73.30;;;;;;4976322;28;20042;-73
2022/10/15 04:37:06;;;;;;;3.30;1.90;;;14.00;73.10;;;;;;4992594;28;20049;-74
2022/10/15 04:39:33;;;;;;;1.75;1.63;;;14.00;73.20;;;;;;4992709;28;20030;-73
2022/10/15 04:41:59;;;;;;;3.13;1.58;;;14.00;73.20;;;;;;4992156;28;20027;-73
2022/10/15 04:44:29;;;;;;;2.00;1.60;;;14.00;73.30;;;;;;4979934;28;20104;-73
2022/10/15 04:46:57;;;;;;;2.85;2.00;;;14.00;73.40;;;;;;5000359;28;20048;-74
2022/10/15 04:49:29;;;;;;;2.65;1.80;;;13.90;73.20;;;;;;4995573;28;20030;-74
2022/10/15 04:51:55;;;;;;;2.63;2.08;;;13.90;73.30;;;;;;4998807;28;20052;-74
2022/10/15 04:54:26;;;;;;;3.17;1.90;;;13.90;73.30;;;;;;5000676;28;20026;-75
2022/10/15 04:56:58;;;;;;;1.90;1.70;;;13.80;73.20;;;;;;4978454;28;20064;-74
2022/10/15 04:59:24;;;;;;;3.30;1.60;;;13.80;73.80;;;;;;4983740;28;20035;-73
2022/10/15 05:02:26;;;;;;;2.22;1.63;;;13.80;73.30;;;;;;4988808;28;20027;-73
2022/10/15 05:04:58;;;;;;;3.33;1.73;;;13.80;73.40;;;;;;5000462;28;20393;-73
2022/10/15 05:07:24;;;;;;;1.60;1.50;;;13.70;73.30;;;;;;4994547;28;20089;-73
2022/10/15 05:09:51;;;;;;;2.75;1.63;;;13.70;73.40;;;;;;4995351;28;20026;-73
2022/10/15 05:12:18;;;;;;;2.75;1.50;;;13.70;73.40;;;;;;5001243;28;20030;-74
2022/10/15 05:14:43;;;;;;;2.35;1.63;;;13.70;73.50;;;;;;4997186;28;20042;-73
2022/10/15 05:17:24;;;;;;;2.33;1.33;;;13.70;73.50;;;;;;5002355;28;20034;-73
2022/10/15 05:19:51;;;;;;;1.58;1.27;;;13.60;73.40;;;;;;4980850;28;20037;-73
2022/10/15 05:22:22;;;;;;;2.70;1.40;;;13.60;73.40;;;;;;4988956;28;20049;-73
2022/10/15 05:24:53;;;;;;;2.85;1.20;;;13.60;73.40;;;;;;5011174;28;20061;-73
2022/10/15 05:27:34;;;;;;;1.80;1.60;;;13.60;73.50;;;;;;4997477;28;20037;-72
2022/10/15 05:30:03;;;;;;;2.63;1.30;;;13.60;73.50;;;;;;4992286;28;20030;-73
2022/10/15 05:32:37;;;;;;;1.30;1.15;;;13.60;73.60;;;;;;4983958;28;20034;-73
2022/10/15 05:35:04;;;;;;;1.60;1.30;;;13.50;73.40;;;;;;4978017;28;20041;-73
2022/10/15 05:37:48;;;;;;;2.85;1.25;;;13.50;73.50;;;;;;4987134;28;20046;-74
2022/10/15 05:40:16;;;;;;;1.90;1.42;;;13.50;73.50;;;;;;5000824;28;20051;-73
2022/10/15 05:42:42;;;;;;;2.88;0.93;;;13.40;73.40;;;;;;4987106;28;20046;-73
2022/10/15 05:45:08;;;;;;;2.08;1.05;;;13.40;73.40;;;;;;4988862;28;20045;-70
2022/10/15 05:47:34;;;;;;;2.72;0.98;;;13.40;73.40;;;;;;4984275;28;20060;-74
2022/10/15 05:50:16;;;;;;;1.10;0.90;;;13.40;73.50;;;;;;4989419;28;20057;-74
2022/10/15 05:52:47;;;;;;;1.27;0.70;;;13.30;73.40;;;;;;5015466;28;20041;-74
2022/10/15 05:55:34;;;;;;;2.60;1.55;;;13.30;73.50;;;;;;4993348;28;20056;-74
2022/10/15 05:58:02;;;;;;;3.85;1.98;;;13.20;73.50;;;;;;4991665;28;20030;-71
2022/10/15 06:00:28;;;;;;;3.78;1.80;;;13.30;74.20;;;;;;4982121;28;20042;-73
2022/10/15 06:02:55;;;;;;;3.53;1.67;;;13.30;74.50;;;;;;4986627;28;20026;-72
2022/10/15 06:05:24;;;;;;;4.15;2.13;;;13.30;74.70;;;;;;4988046;28;20064;-72
2022/10/15 06:07:52;;;;;;;2.33;1.10;;;13.40;74.90;;;;;;4987242;28;20194;-73
2022/10/15 06:10:17;;;;;;;2.97;1.25;;;13.30;74.80;;;;;;4984696;28;20035;-71
2022/10/15 06:12:49;;;;;;;1.95;1.27;;;13.30;74.80;;;;;;4987137;28;20045;-72
2022/10/15 06:15:16;;;;;;;2.35;1.00;;;13.30;74.90;;;;;;4983209;28;20038;-72
2022/10/15 06:17:42;;;;;;;2.75;1.45;;;13.30;74.90;;;;;;4990845;28;20099;-73
2022/10/15 06:20:08;;;;;;;2.53;0.88;;;13.30;74.90;;;;;;4971288;28;20030;-74
2022/10/15 06:22:34;;;;;;;2.42;0.90;;;13.20;74.80;;;;;;4986945;28;20034;-72
2022/10/15 06:25:00;;;;;;;1.33;0.70;;;13.20;74.80;;;;;;4985074;28;21191;-79
2022/10/15 06:27:27;;;;;;;3.05;0.90;;;13.20;74.80;;;;;;4997073;28;20030;-81
2022/10/15 06:29:54;;;;;;;1.73;1.00;;;13.20;75.00;;;;;;4994398;28;20141;-73
2022/10/15 06:32:20;;;;;;;2.42;0.88;;;13.20;75.30;;;;;;4982830;28;20030;-73
2022/10/15 06:34:46;;;;;;;1.17;0.80;;;13.30;75.60;;;;;;4984457;28;20034;-74
2022/10/15 06:37:14;;;;;;;1.77;0.60;;;13.40;75.80;;;;;;4989056;28;20079;-73
2022/10/15 06:39:40;;;;;;;2.55;0.75;;;13.30;75.50;;;;;;4985953;28;20037;-75
2022/10/15 06:42:07;;;;;;;1.83;0.65;;;13.40;75.70;;;;;;4984161;28;20046;-73
2022/10/15 06:44:39;;;;;;;1.98;1.17;;;13.40;75.70;;;;;;4971815;28;20046;-74
2022/10/15 06:47:05;;;;;;;0.95;0.40;;;13.40;75.70;;;;;;4989202;28;20042;-76
2022/10/15 06:49:31;;;;;;;1.38;0.57;;;13.40;75.80;;;;;;4986586;28;20076;-72
2022/10/15 06:51:59;;;;;;;1.52;0.90;;;13.40;75.80;;;;;;4980572;28;20381;-72
2022/10/15 06:54:25;;;;;;;1.27;0.60;;;13.50;76.20;;;;;;4985840;28;20043;-74
2022/10/15 06:56:51;;;;;;;0.82;0.60;;;13.60;76.30;;;;;;4971014;28;20042;-74
2022/10/15 06:59:17;;;;;;;1.48;0.50;;;13.70;76.40;;;;;;4993141;28;20494;-73
2022/10/15 07:01:44;;;;;;;1.35;0.50;;;13.70;76.20;;;;;;4978788;28;20470;-73
2022/10/15 07:04:10;;;;;;;2.33;0.50;;;13.70;76.00;;;;;;5003053;28;20512;-73
2022/10/15 07:06:36;;;;;;;1.60;0.50;;;13.70;75.90;;;;;;4978407;28;20061;-75
2022/10/15 07:09:04;;;;;;;1.55;0.50;;;13.80;75.90;;;;;;4986762;28;20557;-74
2022/10/15 07:11:32;;;;;;;1.80;0.30;;;13.80;75.70;;;;;;4986767;28;20391;-74
2022/10/15 07:14:01;;;;;;;2.10;0.65;;;13.90;75.70;;;;;;4986832;28;20019;-74
2022/10/15 07:16:29;;;;;;;0.82;0.43;;;13.90;75.60;;;;;;4987892;28;20679;-73
2022/10/15 07:18:55;;;;;;;0.85;0.45;;;13.90;75.40;;;;;;4981763;28;20397;-74
2022/10/15 07:21:22;;;;;;;1.65;0.63;;;13.90;75.20;;;;;;4988554;28;20041;-73
2022/10/15 07:23:49;;;;;;;1.55;0.57;;;14.00;75.30;;;;;;4989256;28;20374;-74
2022/10/15 07:26:15;;;;;;;2.30;0.73;;;14.00;75.40;;;;;;4987491;28;20038;-71
2022/10/15 07:28:41;;;;;;;1.88;0.40;;;14.10;75.70;;;;;;4988412;28;20038;-73
2022/10/15 07:31:07;;;;;;;1.83;0.60;;;14.30;75.90;;;;;;4988013;28;20081;-73
2022/10/15 07:33:34;;;;;;;4.93;0.70;;;14.30;75.50;;;;;;4988974;28;20490;-74
2022/10/15 07:36:08;;;;;;;1.73;0.57;;;14.40;75.40;;;;;;4983113;28;20543;-75
2022/10/15 07:38:34;;;;;;;1.75;0.50;;;14.50;75.40;;;;;;4986574;28;20026;-73
2022/10/15 07:41:02;;;;;;;1.65;0.52;;;14.50;75.20;;;;;;4991655;28;20442;-73
2022/10/15 07:43:31;;;;;;;1.23;0.38;;;14.60;75.20;;;;;;4990273;28;20030;-72
2022/10/15 07:45:57;;;;;;;1.70;0.47;;;14.70;75.10;;;;;;4985567;28;20112;-76
2022/10/15 07:48:25;;;;;;;1.13;0.40;;;14.70;74.90;;;;;;4993047;28;20433;-72
2022/10/15 07:51:10;;;;;;;0.85;0.45;;;14.80;74.90;;;;;;4980600;28;20426;-74
2022/10/15 07:53:36;;;;;;;1.75;0.45;;;14.90;74.70;;;;;;4984996;28;20040;-75
2022/10/15 07:56:09;;;;;;;4.30;0.60;;;15.00;74.60;;;;;;4990773;28;20034;-73
2022/10/15 07:58:37;;;;;;;3.35;0.73;;;15.10;74.40;;;;;;4992276;28;20379;-73
2022/10/15 08:01:04;;;;;;;0.77;0.40;;;15.10;74.20;;;;;;4999821;28;20041;-74
2022/10/15 08:03:30;;;;;;;1.75;0.55;;;15.20;74.10;;;;;;4984958;28;20030;-73
2022/10/15 08:06:00;;;;;;;2.30;0.55;;;15.20;74.00;;;;;;4989518;28;20045;-74
2022/10/15 08:08:27;;;;;;;2.33;0.52;;;15.30;74.00;;;;;;4989667;28;20565;-73
2022/10/15 08:10:54;;;;;;;1.55;0.50;;;15.40;74.20;;;;;;4988838;28;20088;-72
2022/10/15 08:13:21;;;;;;;1.42;0.55;;;15.40;73.70;;;;;;4989423;28;20209;-73
2022/10/15 08:15:50;;;;;;;1.70;0.40;;;15.50;73.60;;;;;;4989003;28;20104;-73
2022/10/15 08:18:15;;;;;;;3.72;0.52;;;15.50;73.40;;;;;;4992683;28;20038;-73
2022/10/15 08:20:41;;;;;;;1.35;0.55;;;15.50;73.20;;;;;;4978650;28;20481;-72
2022/10/15 08:23:14;;;;;;;1.42;0.55;;;15.60;73.20;;;;;;4984071;28;20027;-73
2022/10/15 08:25:41;;;;;;;3.03;0.50;;;15.60;73.00;;;;;;4993608;28;20046;-73
2022/10/15 08:28:09;;;;;;;1.10;0.73;;;15.60;72.90;;;;;;4991358;28;20038;-72
2022/10/15 08:30:36;;;;;;;2.60;1.10;;;15.70;72.90;;;;;;4989048;28;20050;-71
2022/10/15 08:33:09;;;;;;;3.35;1.15;;;15.70;72.70;;;;;;4985866;28;20037;-73
2022/10/15 08:35:37;;;;;;;1.90;0.50;;;15.80;72.60;;;;;;4988493;28;20033;-73
2022/10/15 08:38:04;;;;;;;2.78;0.80;;;15.90;73.20;;;;;;4985061;28;20031;-72
2022/10/15 08:40:32;;;;;;;1.35;0.47;;;15.90;72.50;;;;;;4993042;28;20038;-72
2022/10/15 08:42:59;;;;;;;3.30;0.90;;;16.00;72.40;;;;;;4982218;28;20042;-72
2022/10/15 08:45:32;;;;;;;2.03;0.57;;;16.00;72.20;;;;;;4994027;28;20224;-72
2022/10/15 08:48:11;;;;;;;2.72;0.68;;;16.10;72.20;;;;;;4988615;28;20049;-72
2022/10/15 08:50:55;;;;;;;1.55;0.60;;;16.10;72.00;;;;;;4980791;28;20076;-73
2022/10/15 08:53:23;;;;;;;2.47;0.50;;;16.20;71.90;;;;;;4985147;28;20298;-71
2022/10/15 08:56:02;;;;;;;3.72;1.48;;;16.30;71.90;;;;;;4988993;28;20040;-72
2022/10/15 08:58:59;;;;;;;2.05;0.68;;;16.30;71.70;;;;;;4989044;28;20049;-73
2022/10/15 09:01:42;;;;;;;2.38;1.15;;;16.40;71.80;;;;;;4986439;28;20031;-72
2022/10/15 09:04:27;;;;;;;0.77;0.43;;;16.40;71.70;;;;;;4989503;28;20061;-72
2022/10/15 09:07:23;;;;;;;1.55;0.88;;;16.40;71.50;;;;;;4986735;28;20696;-73
2022/10/15 09:10:19;;;;;;;1.48;0.47;;;16.40;71.40;;;;;;4992278;28;20068;-72
2022/10/15 09:12:55;;;;;;;1.92;0.60;;;16.30;71.20;;;;;;4988158;28;20269;-73
2022/10/15 09:15:24;;;;;;;2.95;1.02;;;16.30;71.20;;;;;;4988325;28;20031;-72
2022/10/15 09:17:51;;;;;;;4.47;0.82;;;16.30;71.20;;;;;;4992268;28;20196;-72
2022/10/15 09:20:39;;;;;;;1.40;0.40;;;16.30;71.20;;;;;;4986156;28;20126;-72
2022/10/15 09:23:19;;;;;;;3.35;0.65;;;16.20;70.90;;;;;;4983700;28;20559;-72
2022/10/15 09:25:54;;;;;;;2.65;0.70;;;16.30;71.20;;;;;;4989395;28;20105;-74
2022/10/15 09:28:24;;;;;;;1.25;0.57;;;16.20;71.00;;;;;;4987163;28;20428;-72
2022/10/15 09:30:55;;;;;;;3.70;0.57;;;16.20;71.00;;;;;;4985300;28;20305;-73
2022/10/15 09:33:33;;;;;;;3.03;0.50;;;16.30;71.00;;;;;;4988718;28;20044;-73
2022/10/15 09:36:09;;;;;;;1.73;0.98;;;16.40;70.80;;;;;;4982009;28;20030;-73
2022/10/15 09:38:41;;;;;;;1.95;0.90;;;16.60;71.40;;;;;;4991121;28;20030;-73
2022/10/15 09:41:25;;;;;;;1.48;0.70;;;16.60;70.50;;;;;;4988745;28;20038;-72
2022/10/15 09:43:54;;;;;;;3.42;0.63;;;16.70;70.50;;;;;;4979664;28;20537;-72
2022/10/15 09:46:22;;;;;;;4.03;0.70;;;16.70;70.50;;;;;;4989031;28;20527;-73
2022/10/15 09:48:48;;;;;;;2.60;0.80;;;16.60;70.40;;;;;;4985042;28;20050;-72
2022/10/15 09:51:39;;;;;;;4.47;0.77;;;16.50;70.40;;;;;;4979875;28;20046;-73
2022/10/15 09:54:28;;;;;;;2.00;0.75;;;16.50;70.20;;;;;;4982669;28;20050;-73
2022/10/15 09:56:56;;;;;;;2.45;0.77;;;16.50;70.30;;;;;;4954554;28;20363;-75
2022/10/15 09:59:25;;;;;;;3.60;1.17;;;16.50;70.40;;;;;;4990749;28;20037;-74
2022/10/15 10:02:01;;;;;;;2.05;0.82;;;16.40;70.30;;;;;;4993788;28;20855;-72
2022/10/15 10:04:33;;;;;;;2.40;1.00;;;16.50;70.40;;;;;;4980249;28;20056;-72
2022/10/15 10:07:08;;;;;;;3.50;1.13;;;16.50;70.40;;;;;;4988713;28;20082;-72
2022/10/15 10:09:47;;;;;;;4.18;1.00;;;16.50;70.40;;;;;;4986798;28;20078;-73
2022/10/15 10:12:26;;;;;;;2.70;0.90;;;16.40;70.10;;;;;;4985540;28;20042;-72
2022/10/15 10:14:58;;;;;;;5.05;1.27;;;16.50;70.30;;;;;;4988043;28;20030;-73
2022/10/15 10:17:26;;;;;;;1.67;0.73;;;16.50;70.20;;;;;;4987202;28;20026;-73
2022/10/15 10:20:26;;;;;;;4.07;1.05;;;16.50;70.20;;;;;;4978855;28;20416;-72
2022/10/15 10:23:01;;;;;;;2.40;0.70;;;16.50;70.00;;;;;;4973979;28;20046;-72
2022/10/15 10:25:41;;;;;;;1.55;0.57;;;16.60;70.10;;;;;;4987727;28;20042;-72
2022/10/15 10:28:12;;;;;;;3.50;0.80;;;16.60;70.00;;;;;;4987699;28;20030;-73
2022/10/15 10:31:11;;;;;;;2.75;0.90;;;16.70;70.10;;;;;;4987183;28;20038;-72
2022/10/15 10:33:51;;;;;;;3.15;1.00;;;16.80;70.10;;;;;;4984683;28;20497;-72
2022/10/15 10:36:27;;;;;;;2.92;0.70;;;16.90;70.20;;;;;;4989646;28;20037;-74
2022/10/15 10:39:14;;;;;;;5.28;0.88;;;17.00;70.00;;;;;;4986495;28;20044;-73
2022/10/15 10:41:56;;;;;;;4.80;0.80;;;17.10;69.90;;;;;;4987685;28;20308;-72
2022/10/15 10:44:38;;;;;;;3.53;0.88;;;17.30;70.00;;;;;;4975038;28;20022;-73
2022/10/15 10:47:05;;;;;;;5.72;1.10;;;17.50;70.00;;;;;;4985324;28;20517;-72
2022/10/15 10:49:32;;;;;;;2.58;0.77;;;17.70;69.90;;;;;;4984241;28;20056;-73
2022/10/15 10:52:00;;;;;;;3.78;1.25;;;17.90;69.80;;;;;;4979809;28;20077;-72
2022/10/15 10:54:27;;;;;;;4.57;1.23;;;18.10;69.70;;;;;;4981124;28;20041;-73
2022/10/15 10:56:55;;;;;;;3.97;1.40;;;18.30;69.50;;;;;;4969393;28;20032;-71
2022/10/15 10:59:43;;;;;;;3.92;1.42;;;18.60;69.30;;;;;;4993914;28;20044;-72
2022/10/15 11:02:11;;;;;;;3.95;1.80;;;18.90;69.00;;;;;;4995850;28;20050;-72
2022/10/15 11:04:38;;;;;;;7.75;2.58;;;19.10;68.80;;;;;;4989867;28;20030;-74
2022/10/15 11:07:07;;;;;;;6.20;0.95;;;19.20;68.30;;;;;;4980604;28;20045;-72
2022/10/15 11:10:18;;;;;;;4.75;1.23;;;19.40;68.00;;;;;;4990539;28;20049;-72
2022/10/15 11:13:11;;;;;;;3.63;1.20;;;19.40;67.40;;;;;;4982630;28;20508;-72
2022/10/15 11:16:02;;;;;;;3.85;1.48;;;19.50;67.50;;;;;;4987748;28;20030;-73
2022/10/15 11:18:46;;;;;;;2.70;0.93;;;19.40;67.20;;;;;;4977524;28;20035;-72
2022/10/15 11:21:21;;;;;;;3.88;1.13;;;19.30;67.20;;;;;;4978757;28;20035;-73
2022/10/15 11:24:07;;;;;;;4.32;1.05;;;19.10;66.90;;;;;;4987008;28;20133;-72
2022/10/15 11:26:59;;;;;;;2.72;0.98;;;19.10;67.20;;;;;;4981835;28;20042;-72
2022/10/15 11:29:44;;;;;;;5.22;1.00;;;19.00;67.20;;;;;;4982983;28;20029;-75
2022/10/15 11:32:28;;;;;;;7.03;1.85;;;18.80;66.90;;;;;;4981227;28;20038;-72
2022/10/15 11:35:22;;;;;;;3.33;1.10;;;18.80;66.70;;;;;;4990629;28;20083;-72
2022/10/15 11:37:54;;;;;;;5.57;1.33;;;18.80;66.70;;;;;;4980089;28;20461;-72
2022/10/15 11:40:24;;;;;;;5.05;1.65;;;18.70;66.50;;;;;;4980786;28;20685;-73
2022/10/15 11:42:59;;;;;;;3.35;0.95;;;18.60;66.30;;;;;;4985840;28;20031;-73
2022/10/15 11:46:04;;;;;;;3.67;0.80;;;18.60;66.20;;;;;;4988499;28;20038;-74
2022/10/15 11:49:02;;;;;;;3.65;1.02;;;18.60;66.10;;;;;;4982490;28;21148;-72
2022/10/15 11:51:51;;;;;;;3.97;1.20;;;18.70;66.20;;;;;;4980558;28;20058;-73
2022/10/15 11:54:34;;;;;;;6.55;1.67;;;18.70;66.30;;;;;;4998044;28;20038;-76
2022/10/15 11:57:02;;;;;;;6.20;1.00;;;18.70;66.10;;;;;;4983703;28;20030;-73
2022/10/15 11:59:56;;;;;;;3.55;1.13;;;18.70;66.20;;;;;;4985493;28;20038;-74
2022/10/15 12:02:35;;;;;;;6.72;1.30;;;18.70;66.00;;;;;;4981864;28;20040;-75
2022/10/15 12:05:26;;;;;;;4.35;1.63;;;18.70;65.90;;;;;;4986761;28;20066;-76
2022/10/15 12:07:54;;;;;;;7.80;2.60;;;18.60;66.20;;;;;;4982969;28;20446;-76
2022/10/15 12:10:30;;;;;;;5.15;1.58;;;18.60;65.80;;;;;;4988456;28;20040;-76
2022/10/15 12:13:13;;;;;;;9.25;2.45;;;18.70;65.90;;;;;;4988082;28;20042;-75
2022/10/15 12:15:53;;;;;;;6.97;1.90;;;18.80;65.70;;;;;;4992304;28;20042;-74
2022/10/15 12:18:24;;;;;;;7.28;2.08;;;18.90;65.70;;;;;;4985072;28;20043;-71
2022/10/15 12:20:54;;;;;;;8.07;2.85;;;19.00;66.10;;;;;;4988792;28;20039;-74
2022/10/15 12:23:40;;;;;;;7.10;1.55;;;19.10;65.40;;;;;;4991383;28;20050;-74
2022/10/15 12:26:39;;;;;;;6.50;2.30;;;19.30;65.20;;;;;;4985059;28;20074;-73
2022/10/15 12:29:19;;;;;;;5.85;1.65;;;19.50;64.90;;;;;;4962959;28;20056;-75
2022/10/15 12:31:51;;;;;;;9.13;2.38;;;19.80;65.00;;;;;;4997634;28;20030;-78
2022/10/15 12:34:26;;;;;;;15.80;2.03;;;19.90;64.60;;;;;;4993441;28;20560;-75
2022/10/15 12:37:05;;;;;;;7.75;1.67;;;20.10;64.50;;;;;;4992277;28;20185;-72
2022/10/15 12:39:32;;;;;;;7.55;1.70;;;20.20;64.30;;;;;;4996311;28;20034;-75
2022/10/15 12:41:58;;;;;;;5.03;2.05;;;20.30;64.20;;;;;;4991328;28;20034;-74
2022/10/15 12:44:32;;;;;;;5.65;2.00;;;20.40;63.90;;;;;;4989301;28;20057;-73
2022/10/15 12:46:59;;;;;;;8.85;1.77;;;20.40;63.70;;;;;;4989926;28;20054;-74
2022/10/15 12:49:31;;;;;;;5.75;1.95;;;20.40;63.60;;;;;;4996147;28;20037;-75
2022/10/15 12:51:59;;;;;;;9.27;1.50;;;20.40;63.40;;;;;;4986787;28;20039;-75
2022/10/15 12:54:37;;;;;;;5.88;1.65;;;20.40;63.30;;;;;;4972328;28;20084;-74
2022/10/15 12:57:37;;;;;;;8.40;2.53;;;20.50;63.30;;;;;;4981403;28;20034;-74
2022/10/15 13:00:23;;;;;;;17.35;3.70;;;20.50;62.90;;;;;;4994593;28;20369;-76
2022/10/15 13:02:50;;;;;;;10.50;3.30;;;20.60;62.80;;;;;;4977359;28;20041;-74
2022/10/15 13:05:28;;;;;;;10.90;2.47;;;20.80;63.20;;;;;;4981363;28;20050;-75
2022/10/15 13:07:57;;;;;;;11.52;2.40;;;20.80;62.70;;;;;;4979938;28;20064;-76
2022/10/15 13:10:38;;;;;;;7.55;2.45;;;20.80;62.70;;;;;;4992555;28;20093;-75
2022/10/15 13:13:12;;;;;;;8.23;2.58;;;20.90;62.50;;;;;;4992656;28;20030;-84
2022/10/15 13:15:39;;;;;;;15.43;3.58;;;20.90;62.50;;;;;;4974169;28;20039;-79